sensor_id;sensor_type;location;lat;lon;timestamp;pressure;altitude;pressure_sealevel;temperature;humidity
61573;BME280;47465;43.094;12.434;2023-05-28T00:00:03;98547.94;;;16.09;63.71
61573;BME280;47465;43.094;12.434;2023-05-28T00:02:29;98539.97;;;16.07;63.38
61573;BME280;47465;43.094;12.434;2023-05-28T00:04:55;98548.63;;;16.12;63.62
61573;BME280;47465;43.094;12.434;2023-05-28T00:07:21;98549.97;;;16.21;62.92
61573;BME280;47465;43.094;12.434;2023-05-28T00:09:51;98579.84;;;16.31;63.49
61573;BME280;47465;43.094;12.434;2023-05-28T00:12:17;98539.81;;;16.10;63.35
61573;BME280;47465;43.094;12.434;2023-05-28T00:14:43;98561.47;;;16.23;63.55
61573;BME280;47465;43.094;12.434;2023-05-28T00:17:09;98529.03;;;15.94;64.17
61573;BME280;47465;43.094;12.434;2023-05-28T00:19:35;98521.13;;;15.91;64.23
61573;BME280;47465;43.094;12.434;2023-05-28T00:22:01;98526.19;;;15.97;64.05
61573;BME280;47465;43.094;12.434;2023-05-28T00:24:28;98513.81;;;15.95;63.55
61573;BME280;47465;43.094;12.434;2023-05-28T00:26:55;98530.56;;;16.16;63.09
61573;BME280;47465;43.094;12.434;2023-05-28T00:29:21;98558.22;;;16.34;63.00
61573;BME280;47465;43.094;12.434;2023-05-28T00:31:47;98524.44;;;16.14;63.04
61573;BME280;47465;43.094;12.434;2023-05-28T00:34:13;98517.09;;;16.00;63.78
61573;BME280;47465;43.094;12.434;2023-05-28T00:36:39;98521.13;;;15.91;64.13
61573;BME280;47465;43.094;12.434;2023-05-28T00:39:05;98510.13;;;15.80;64.47
61573;BME280;47465;43.094;12.434;2023-05-28T00:41:31;98509.50;;;15.75;65.01
61573;BME280;47465;43.094;12.434;2023-05-28T00:44:02;98522.25;;;15.87;64.53
61573;BME280;47465;43.094;12.434;2023-05-28T00:46:29;98509.56;;;15.73;65.28
61573;BME280;47465;43.094;12.434;2023-05-28T00:48:55;98512.72;;;15.81;64.88
61573;BME280;47465;43.094;12.434;2023-05-28T00:51:21;98541.22;;;16.00;64.95
61573;BME280;47465;43.094;12.434;2023-05-28T00:53:47;98503.41;;;15.89;64.31
61573;BME280;47465;43.094;12.434;2023-05-28T00:56:14;98526.16;;;16.15;64.17
61573;BME280;47465;43.094;12.434;2023-05-28T00:58:41;98540.88;;;16.23;63.74
61573;BME280;47465;43.094;12.434;2023-05-28T01:01:10;98506.75;;;16.10;63.34
61573;BME280;47465;43.094;12.434;2023-05-28T01:03:36;98513.59;;;16.15;63.62
61573;BME280;47465;43.094;12.434;2023-05-28T01:06:07;98502.00;;;16.15;63.33
61573;BME280;47465;43.094;12.434;2023-05-28T01:08:35;98484.19;;;16.14;62.99
61573;BME280;47465;43.094;12.434;2023-05-28T01:11:02;98488.06;;;16.24;62.81
61573;BME280;47465;43.094;12.434;2023-05-28T01:13:28;98486.19;;;16.26;62.80
61573;BME280;47465;43.094;12.434;2023-05-28T01:15:55;98500.38;;;16.28;63.09
61573;BME280;47465;43.094;12.434;2023-05-28T01:18:23;98493.13;;;16.30;63.08
61573;BME280;47465;43.094;12.434;2023-05-28T01:20:51;98517.13;;;16.33;63.41
61573;BME280;47465;43.094;12.434;2023-05-28T01:23:19;98501.06;;;16.16;63.79
61573;BME280;47465;43.094;12.434;2023-05-28T01:25:49;98516.06;;;16.20;63.74
61573;BME280;47465;43.094;12.434;2023-05-28T01:28:16;98489.94;;;16.06;64.15
61573;BME280;47465;43.094;12.434;2023-05-28T01:30:42;98504.69;;;16.15;64.15
61573;BME280;47465;43.094;12.434;2023-05-28T01:33:09;98494.47;;;16.06;64.11
61573;BME280;47465;43.094;12.434;2023-05-28T01:35:36;98487.44;;;16.03;64.16
61573;BME280;47465;43.094;12.434;2023-05-28T01:38:03;98486.88;;;16.14;63.74
61573;BME280;47465;43.094;12.434;2023-05-28T01:40:31;98492.31;;;16.12;64.07
61573;BME280;47465;43.094;12.434;2023-05-28T01:42:59;98501.53;;;16.07;64.29
61573;BME280;47465;43.094;12.434;2023-05-28T01:45:26;98487.53;;;16.01;64.52
61573;BME280;47465;43.094;12.434;2023-05-28T01:47:53;98482.16;;;16.01;63.83
61573;BME280;47465;43.094;12.434;2023-05-28T01:50:20;98501.31;;;16.11;63.96
61573;BME280;47465;43.094;12.434;2023-05-28T01:52:47;98493.41;;;16.08;63.92
61573;BME280;47465;43.094;12.434;2023-05-28T01:55:13;98510.31;;;16.10;64.39
61573;BME280;47465;43.094;12.434;2023-05-28T01:57:39;98491.00;;;16.04;64.29
61573;BME280;47465;43.094;12.434;2023-05-28T02:00:08;98499.66;;;16.09;64.50
61573;BME280;47465;43.094;12.434;2023-05-28T02:02:36;98490.47;;;15.97;64.80
61573;BME280;47465;43.094;12.434;2023-05-28T02:05:02;98492.34;;;15.95;64.88
61573;BME280;47465;43.094;12.434;2023-05-28T02:07:29;98506.84;;;16.08;65.11
61573;BME280;47465;43.094;12.434;2023-05-28T02:09:56;98491.16;;;16.00;65.22
61573;BME280;47465;43.094;12.434;2023-05-28T02:12:22;98488.72;;;15.96;65.26
61573;BME280;47465;43.094;12.434;2023-05-28T02:14:48;98491.75;;;15.90;65.64
61573;BME280;47465;43.094;12.434;2023-05-28T02:17:16;98491.81;;;15.88;65.85
61573;BME280;47465;43.094;12.434;2023-05-28T02:19:43;98482.03;;;15.87;65.84
61573;BME280;47465;43.094;12.434;2023-05-28T02:22:09;98482.81;;;15.89;66.24
61573;BME280;47465;43.094;12.434;2023-05-28T02:24:37;98482.28;;;15.82;66.48
61573;BME280;47465;43.094;12.434;2023-05-28T02:27:04;98477.88;;;15.81;66.67
61573;BME280;47465;43.094;12.434;2023-05-28T02:29:30;98492.84;;;15.86;66.93
61573;BME280;47465;43.094;12.434;2023-05-28T02:31:56;98482.19;;;15.84;67.29
61573;BME280;47465;43.094;12.434;2023-05-28T02:34:24;98517.41;;;16.11;66.72
61573;BME280;47465;43.094;12.434;2023-05-28T02:36:50;98473.13;;;15.87;67.40
61573;BME280;47465;43.094;12.434;2023-05-28T02:39:18;98468.41;;;15.92;67.17
61573;BME280;47465;43.094;12.434;2023-05-28T02:41:44;98469.94;;;15.96;67.35
61573;BME280;47465;43.094;12.434;2023-05-28T02:44:10;98474.19;;;16.00;66.85
61573;BME280;47465;43.094;12.434;2023-05-28T02:46:36;98479.47;;;16.01;67.52
61573;BME280;47465;43.094;12.434;2023-05-28T02:49:02;98465.72;;;15.92;67.51
61573;BME280;47465;43.094;12.434;2023-05-28T02:51:30;98457.75;;;15.90;68.04
61573;BME280;47465;43.094;12.434;2023-05-28T02:53:56;98460.66;;;15.86;68.56
61573;BME280;47465;43.094;12.434;2023-05-28T02:56:22;98490.53;;;15.95;68.80
61573;BME280;47465;43.094;12.434;2023-05-28T02:58:48;98461.31;;;15.73;69.16
61573;BME280;47465;43.094;12.434;2023-05-28T03:01:14;98469.28;;;15.75;69.15
61573;BME280;47465;43.094;12.434;2023-05-28T03:03:40;98453.63;;;15.66;69.36
61573;BME280;47465;43.094;12.434;2023-05-28T03:06:06;98481.94;;;15.89;69.36
61573;BME280;47465;43.094;12.434;2023-05-28T03:08:34;98462.56;;;15.84;68.96
61573;BME280;47465;43.094;12.434;2023-05-28T03:11:00;98457.88;;;15.87;68.43
61573;BME280;47465;43.094;12.434;2023-05-28T03:13:26;98479.88;;;15.94;69.01
61573;BME280;47465;43.094;12.434;2023-05-28T03:15:52;98472.63;;;15.96;68.71
61573;BME280;47465;43.094;12.434;2023-05-28T03:18:18;98470.13;;;15.93;68.86
61573;BME280;47465;43.094;12.434;2023-05-28T03:20:44;98487.00;;;16.11;68.49
61573;BME280;47465;43.094;12.434;2023-05-28T03:23:10;98460.56;;;15.87;69.09
61573;BME280;47465;43.094;12.434;2023-05-28T03:25:37;98488.06;;;16.08;68.57
61573;BME280;47465;43.094;12.434;2023-05-28T03:28:03;98493.09;;;16.14;69.17
61573;BME280;47465;43.094;12.434;2023-05-28T03:30:30;98484.44;;;16.09;69.19
61573;BME280;47465;43.094;12.434;2023-05-28T03:32:56;98478.38;;;16.06;69.29
61573;BME280;47465;43.094;12.434;2023-05-28T03:35:22;98468.53;;;15.89;69.58
61573;BME280;47465;43.094;12.434;2023-05-28T03:37:48;98467.75;;;15.87;69.71
61573;BME280;47465;43.094;12.434;2023-05-28T03:40:15;98465.31;;;15.82;69.87
61573;BME280;47465;43.094;12.434;2023-05-28T03:42:42;98475.00;;;15.85;70.36
61573;BME280;47465;43.094;12.434;2023-05-28T03:45:09;98462.56;;;15.84;70.24
61573;BME280;47465;43.094;12.434;2023-05-28T03:47:35;98500.94;;;16.01;70.19
61573;BME280;47465;43.094;12.434;2023-05-28T03:50:01;98464.59;;;15.78;70.55
61573;BME280;47465;43.094;12.434;2023-05-28T03:52:29;98467.47;;;15.75;71.02
61573;BME280;47465;43.094;12.434;2023-05-28T03:54:55;98473.03;;;15.71;71.18
61573;BME280;47465;43.094;12.434;2023-05-28T03:57:21;98476.09;;;15.63;71.60
61573;BME280;47465;43.094;12.434;2023-05-28T03:59:49;98482.34;;;15.64;71.95
61573;BME280;47465;43.094;12.434;2023-05-28T04:02:15;98484.78;;;15.68;71.57
61573;BME280;47465;43.094;12.434;2023-05-28T04:04:41;98474.22;;;15.65;71.71
61573;BME280;47465;43.094;12.434;2023-05-28T04:07:08;98472.91;;;15.74;71.50
61573;BME280;47465;43.094;12.434;2023-05-28T04:09:34;98515.38;;;15.99;71.43
61573;BME280;47465;43.094;12.434;2023-05-28T04:12:02;98470.44;;;15.87;71.06
61573;BME280;47465;43.094;12.434;2023-05-28T04:14:28;98500.34;;;16.12;70.33
61573;BME280;47465;43.094;12.434;2023-05-28T04:16:55;98502.72;;;16.18;70.34
61573;BME280;47465;43.094;12.434;2023-05-28T04:19:23;98496.81;;;16.12;70.32
61573;BME280;47465;43.094;12.434;2023-05-28T04:21:49;98512.00;;;16.29;70.20
61573;BME280;47465;43.094;12.434;2023-05-28T04:24:15;98503.53;;;16.36;70.24
61573;BME280;47465;43.094;12.434;2023-05-28T04:26:41;98495.19;;;16.25;70.46
61573;BME280;47465;43.094;12.434;2023-05-28T04:29:07;98508.69;;;16.23;70.23
61573;BME280;47465;43.094;12.434;2023-05-28T04:31:33;98501.50;;;15.91;71.12
61573;BME280;47465;43.094;12.434;2023-05-28T04:34:00;98504.41;;;15.69;71.88
61573;BME280;47465;43.094;12.434;2023-05-28T04:36:29;98518.44;;;15.56;72.86
61573;BME280;47465;43.094;12.434;2023-05-28T04:38:58;98537.50;;;15.50;73.77
61573;BME280;47465;43.094;12.434;2023-05-28T04:41:26;98532.00;;;15.36;75.72
61573;BME280;47465;43.094;12.434;2023-05-28T04:43:52;98523.09;;;15.18;76.08
61573;BME280;47465;43.094;12.434;2023-05-28T04:46:18;98522.66;;;15.08;76.09
61573;BME280;47465;43.094;12.434;2023-05-28T04:48:44;98549.16;;;15.14;76.16
61573;BME280;47465;43.094;12.434;2023-05-28T04:51:12;98538.00;;;15.05;77.00
61573;BME280;47465;43.094;12.434;2023-05-28T04:53:39;98531.78;;;15.04;77.08
61573;BME280;47465;43.094;12.434;2023-05-28T04:56:05;98552.31;;;15.23;77.61
61573;BME280;47465;43.094;12.434;2023-05-28T04:58:31;98527.47;;;15.19;77.92
61573;BME280;47465;43.094;12.434;2023-05-28T05:00:57;98537.38;;;15.53;77.46
61573;BME280;47465;43.094;12.434;2023-05-28T05:03:24;98534.72;;;16.21;73.33
61573;BME280;47465;43.094;12.434;2023-05-28T05:05:50;98546.63;;;16.82;71.11
61573;BME280;47465;43.094;12.434;2023-05-28T05:08:18;98530.53;;;17.44;67.75
61573;BME280;47465;43.094;12.434;2023-05-28T05:10:44;98526.47;;;17.83;65.20
61573;BME280;47465;43.094;12.434;2023-05-28T05:13:10;98544.88;;;18.20;63.95
61573;BME280;47465;43.094;12.434;2023-05-28T05:15:36;98520.38;;;18.24;62.16
61573;BME280;47465;43.094;12.434;2023-05-28T05:18:03;98529.66;;;18.62;61.48
61573;BME280;47465;43.094;12.434;2023-05-28T05:20:29;98522.06;;;18.83;60.28
61573;BME280;47465;43.094;12.434;2023-05-28T05:22:55;98525.78;;;18.95;60.13
61573;BME280;47465;43.094;12.434;2023-05-28T05:25:24;98515.63;;;19.13;60.07
61573;BME280;47465;43.094;12.434;2023-05-28T05:27:50;98540.00;;;19.38;60.03
61573;BME280;47465;43.094;12.434;2023-05-28T05:30:16;98524.84;;;19.50;59.16
61573;BME280;47465;43.094;12.434;2023-05-28T05:32:42;98543.50;;;19.53;59.04
61573;BME280;47465;43.094;12.434;2023-05-28T05:35:08;98512.84;;;19.41;58.49
61573;BME280;47465;43.094;12.434;2023-05-28T05:37:34;98521.81;;;19.55;59.08
61573;BME280;47465;43.094;12.434;2023-05-28T05:40:01;98518.78;;;19.74;59.11
61573;BME280;47465;43.094;12.434;2023-05-28T05:42:32;98537.69;;;19.99;58.64
61573;BME280;47465;43.094;12.434;2023-05-28T05:44:58;98518.50;;;20.04;58.15
61573;BME280;47465;43.094;12.434;2023-05-28T05:47:24;98528.41;;;20.16;57.95
61573;BME280;47465;43.094;12.434;2023-05-28T05:49:50;98509.94;;;19.97;57.28
61573;BME280;47465;43.094;12.434;2023-05-28T05:52:16;98510.78;;;19.72;57.65
61573;BME280;47465;43.094;12.434;2023-05-28T05:54:43;98514.41;;;19.58;59.40
61573;BME280;47465;43.094;12.434;2023-05-28T05:57:09;98525.25;;;19.84;58.91
61573;BME280;47465;43.094;12.434;2023-05-28T05:59:36;98525.06;;;20.13;59.39
61573;BME280;47465;43.094;12.434;2023-05-28T06:02:02;98529.34;;;20.53;57.98
61573;BME280;47465;43.094;12.434;2023-05-28T06:04:28;98510.16;;;20.58;58.64
61573;BME280;47465;43.094;12.434;2023-05-28T06:06:57;98551.19;;;20.38;58.40
61573;BME280;47465;43.094;12.434;2023-05-28T06:09:23;98538.03;;;20.20;60.49
61573;BME280;47465;43.094;12.434;2023-05-28T06:11:49;98534.47;;;20.45;59.45
61573;BME280;47465;43.094;12.434;2023-05-28T06:14:15;98515.00;;;20.27;59.63
61573;BME280;47465;43.094;12.434;2023-05-28T06:16:43;98507.47;;;20.33;59.49
61573;BME280;47465;43.094;12.434;2023-05-28T06:19:09;98504.97;;;20.29;59.35
61573;BME280;47465;43.094;12.434;2023-05-28T06:21:35;98503.75;;;20.46;59.11
61573;BME280;47465;43.094;12.434;2023-05-28T06:24:02;98513.81;;;20.44;60.05
61573;BME280;47465;43.094;12.434;2023-05-28T06:26:28;98501.00;;;20.85;58.74
61573;BME280;47465;43.094;12.434;2023-05-28T06:28:55;98509.50;;;20.42;59.41
61573;BME280;47465;43.094;12.434;2023-05-28T06:31:21;98501.28;;;20.56;59.09
61573;BME280;47465;43.094;12.434;2023-05-28T06:33:50;98510.56;;;20.78;59.10
61573;BME280;47465;43.094;12.434;2023-05-28T06:36:16;98496.91;;;20.79;57.71
61573;BME280;47465;43.094;12.434;2023-05-28T06:38:42;98496.19;;;21.01;57.48
61573;BME280;47465;43.094;12.434;2023-05-28T06:41:08;98505.81;;;20.68;59.13
61573;BME280;47465;43.094;12.434;2023-05-28T06:43:35;98516.19;;;20.62;59.40
61573;BME280;47465;43.094;12.434;2023-05-28T06:46:01;98507.53;;;20.69;58.77
61573;BME280;47465;43.094;12.434;2023-05-28T06:48:27;98541.38;;;20.24;59.83
61573;BME280;47465;43.094;12.434;2023-05-28T06:50:55;98507.38;;;20.08;61.31
61573;BME280;47465;43.094;12.434;2023-05-28T06:53:22;98507.38;;;20.21;60.59
61573;BME280;47465;43.094;12.434;2023-05-28T06:55:48;98499.34;;;20.45;59.88
61573;BME280;47465;43.094;12.434;2023-05-28T06:58:14;98504.56;;;20.85;58.27
61573;BME280;47465;43.094;12.434;2023-05-28T07:00:40;98495.13;;;20.41;59.82
61573;BME280;47465;43.094;12.434;2023-05-28T07:03:06;98499.63;;;20.53;59.16
61573;BME280;47465;43.094;12.434;2023-05-28T07:05:34;98508.84;;;20.38;60.22
61573;BME280;47465;43.094;12.434;2023-05-28T07:08:03;98491.91;;;20.86;59.07
61573;BME280;47465;43.094;12.434;2023-05-28T07:10:29;98503.53;;;21.36;59.10
61573;BME280;47465;43.094;12.434;2023-05-28T07:12:55;98523.66;;;21.32;58.11
61573;BME280;47465;43.094;12.434;2023-05-28T07:15:21;98496.13;;;20.90;59.24
61573;BME280;47465;43.094;12.434;2023-05-28T07:17:47;98502.06;;;20.58;59.66
61573;BME280;47465;43.094;12.434;2023-05-28T07:20:14;98506.91;;;20.40;60.79
61573;BME280;47465;43.094;12.434;2023-05-28T07:22:41;98500.56;;;20.91;58.93
61573;BME280;47465;43.094;12.434;2023-05-28T07:25:09;98504.75;;;20.58;60.98
61573;BME280;47465;43.094;12.434;2023-05-28T07:27:40;98500.13;;;21.21;58.88
61573;BME280;47465;43.094;12.434;2023-05-28T07:30:07;98490.50;;;21.17;59.22
61573;BME280;47465;43.094;12.434;2023-05-28T07:32:33;98501.06;;;21.68;56.88
61573;BME280;47465;43.094;12.434;2023-05-28T07:35:00;98495.13;;;21.99;56.59
61573;BME280;47465;43.094;12.434;2023-05-28T07:37:26;98496.91;;;22.33;55.16
61573;BME280;47465;43.094;12.434;2023-05-28T07:39:52;98511.09;;;22.71;54.97
61573;BME280;47465;43.094;12.434;2023-05-28T07:42:20;98483.72;;;22.74;55.32
61573;BME280;47465;43.094;12.434;2023-05-28T07:44:46;98510.16;;;22.14;56.32
61573;BME280;47465;43.094;12.434;2023-05-28T07:47:13;98488.38;;;22.15;55.83
61573;BME280;47465;43.094;12.434;2023-05-28T07:49:39;98517.63;;;22.34;56.49
61573;BME280;47465;43.094;12.434;2023-05-28T07:52:05;98482.84;;;22.17;55.21
61573;BME280;47465;43.094;12.434;2023-05-28T07:54:31;98477.91;;;22.11;56.09
61573;BME280;47465;43.094;12.434;2023-05-28T07:56:57;98496.03;;;22.78;54.14
61573;BME280;47465;43.094;12.434;2023-05-28T07:59:27;98476.81;;;22.81;55.48
61573;BME280;47465;43.094;12.434;2023-05-28T08:01:54;98474.28;;;22.46;56.35
61573;BME280;47465;43.094;12.434;2023-05-28T08:04:51;98482.50;;;23.33;54.04
61573;BME280;47465;43.094;12.434;2023-05-28T08:07:17;98469.09;;;22.65;54.34
61573;BME280;47465;43.094;12.434;2023-05-28T08:09:43;98482.97;;;22.83;53.14
61573;BME280;47465;43.094;12.434;2023-05-28T08:12:10;98471.13;;;23.07;53.37
61573;BME280;47465;43.094;12.434;2023-05-28T08:14:38;98455.84;;;22.83;52.48
61573;BME280;47465;43.094;12.434;2023-05-28T08:17:04;98470.97;;;23.20;52.70
61573;BME280;47465;43.094;12.434;2023-05-28T08:19:30;98470.84;;;23.21;53.80
61573;BME280;47465;43.094;12.434;2023-05-28T08:21:57;98469.41;;;23.70;52.53
61573;BME280;47465;43.094;12.434;2023-05-28T08:24:24;98456.03;;;23.99;49.60
61573;BME280;47465;43.094;12.434;2023-05-28T08:26:50;98446.75;;;23.81;50.46
61573;BME280;47465;43.094;12.434;2023-05-28T08:29:16;98463.06;;;24.33;49.57
61573;BME280;47465;43.094;12.434;2023-05-28T08:31:42;98465.03;;;24.00;50.67
61573;BME280;47465;43.094;12.434;2023-05-28T08:34:08;98466.94;;;24.09;51.23
61573;BME280;47465;43.094;12.434;2023-05-28T08:36:35;98447.88;;;23.99;49.88
61573;BME280;47465;43.094;12.434;2023-05-28T08:39:03;98445.25;;;24.19;49.19
61573;BME280;47465;43.094;12.434;2023-05-28T08:41:29;98460.94;;;24.46;49.96
61573;BME280;47465;43.094;12.434;2023-05-28T08:43:56;98467.63;;;24.32;47.98
61573;BME280;47465;43.094;12.434;2023-05-28T08:46:22;98448.22;;;23.85;48.92
61573;BME280;47465;43.094;12.434;2023-05-28T08:48:48;98434.09;;;24.22;46.92
61573;BME280;47465;43.094;12.434;2023-05-28T08:51:16;98427.28;;;24.28;48.97
61573;BME280;47465;43.094;12.434;2023-05-28T08:53:44;98444.63;;;24.36;47.14
61573;BME280;47465;43.094;12.434;2023-05-28T08:56:13;98435.84;;;23.92;48.63
61573;BME280;47465;43.094;12.434;2023-05-28T08:58:39;98436.16;;;23.78;49.40
61573;BME280;47465;43.094;12.434;2023-05-28T09:01:08;98436.47;;;24.06;48.80
61573;BME280;47465;43.094;12.434;2023-05-28T09:03:38;98444.63;;;24.06;49.84
61573;BME280;47465;43.094;12.434;2023-05-28T09:06:05;98430.94;;;24.17;48.47
61573;BME280;47465;43.094;12.434;2023-05-28T09:08:32;98453.09;;;23.70;49.77
61573;BME280;47465;43.094;12.434;2023-05-28T09:11:08;98424.34;;;24.10;49.25
61573;BME280;47465;43.094;12.434;2023-05-28T09:13:40;98414.44;;;24.39;48.29
61573;BME280;47465;43.094;12.434;2023-05-28T09:16:06;98421.34;;;24.94;48.48
61573;BME280;47465;43.094;12.434;2023-05-28T09:18:32;98428.66;;;25.03;45.85
61573;BME280;47465;43.094;12.434;2023-05-28T09:20:59;98435.59;;;25.27;45.53
61573;BME280;47465;43.094;12.434;2023-05-28T09:23:27;98416.94;;;25.61;46.08
61573;BME280;47465;43.094;12.434;2023-05-28T09:25:54;98422.97;;;25.55;44.90
61573;BME280;47465;43.094;12.434;2023-05-28T09:28:26;98418.63;;;25.91;44.98
61573;BME280;47465;43.094;12.434;2023-05-28T09:31:02;98421.13;;;26.22;44.77
61573;BME280;47465;43.094;12.434;2023-05-28T09:33:28;98432.56;;;26.26;42.73
61573;BME280;47465;43.094;12.434;2023-05-28T09:35:58;98418.34;;;25.94;43.24
61573;BME280;47465;43.094;12.434;2023-05-28T09:38:24;98414.72;;;26.13;45.13
61573;BME280;47465;43.094;12.434;2023-05-28T09:40:53;98440.75;;;26.63;43.84
61573;BME280;47465;43.094;12.434;2023-05-28T09:43:26;98418.84;;;26.45;41.15
61573;BME280;47465;43.094;12.434;2023-05-28T09:46:05;98430.91;;;26.80;41.78
61573;BME280;47465;43.094;12.434;2023-05-28T09:48:31;98411.63;;;27.09;40.87
61573;BME280;47465;43.094;12.434;2023-05-28T09:50:58;98442.22;;;26.48;43.83
61573;BME280;47465;43.094;12.434;2023-05-28T09:53:25;98424.38;;;25.59;44.99
61573;BME280;47465;43.094;12.434;2023-05-28T09:55:55;98393.38;;;24.53;45.07
61573;BME280;47465;43.094;12.434;2023-05-28T09:58:28;98423.47;;;24.40;48.16
61573;BME280;47465;43.094;12.434;2023-05-28T10:01:00;98415.41;;;24.29;46.58
61573;BME280;47465;43.094;12.434;2023-05-28T10:03:34;98432.09;;;25.05;46.37
61573;BME280;47465;43.094;12.434;2023-05-28T10:06:06;98426.13;;;25.31;45.81
61573;BME280;47465;43.094;12.434;2023-05-28T10:08:37;98398.31;;;25.66;44.59
61573;BME280;47465;43.094;12.434;2023-05-28T10:11:05;98402.75;;;25.48;44.70
61573;BME280;47465;43.094;12.434;2023-05-28T10:13:32;98418.56;;;26.11;44.51
61573;BME280;47465;43.094;12.434;2023-05-28T10:15:59;98399.25;;;26.41;42.07
61573;BME280;47465;43.094;12.434;2023-05-28T10:18:26;98399.00;;;26.80;41.00
61573;BME280;47465;43.094;12.434;2023-05-28T10:20:53;98396.41;;;25.96;41.69
61573;BME280;47465;43.094;12.434;2023-05-28T10:23:20;98414.91;;;25.92;41.88
61573;BME280;47465;43.094;12.434;2023-05-28T10:25:46;98395.84;;;25.73;43.54
61573;BME280;47465;43.094;12.434;2023-05-28T10:28:14;98398.25;;;26.05;42.55
61573;BME280;47465;43.094;12.434;2023-05-28T10:30:40;98413.34;;;26.64;41.15
61573;BME280;47465;43.094;12.434;2023-05-28T10:33:11;98413.56;;;26.99;39.03
61573;BME280;47465;43.094;12.434;2023-05-28T10:35:50;98382.50;;;27.00;39.00
61573;BME280;47465;43.094;12.434;2023-05-28T10:38:17;98402.75;;;27.25;39.84
61573;BME280;47465;43.094;12.434;2023-05-28T10:40:42;98388.19;;;26.89;39.87
61573;BME280;47465;43.094;12.434;2023-05-28T10:46:04;98405.03;;;27.02;39.91
61573;BME280;47465;43.094;12.434;2023-05-28T10:48:37;98383.88;;;25.46;41.98
61573;BME280;47465;43.094;12.434;2023-05-28T10:51:04;98401.19;;;25.45;43.32
61573;BME280;47465;43.094;12.434;2023-05-28T10:53:30;98374.09;;;25.53;41.24
61573;BME280;47465;43.094;12.434;2023-05-28T10:55:56;98351.66;;;25.98;41.17
61573;BME280;47465;43.094;12.434;2023-05-28T10:58:26;98378.84;;;25.41;42.37
61573;BME280;47465;43.094;12.434;2023-05-28T11:00:53;98385.84;;;25.54;42.24
61573;BME280;47465;43.094;12.434;2023-05-28T11:03:47;98373.53;;;26.07;39.72
61573;BME280;47465;43.094;12.434;2023-05-28T11:06:17;98356.72;;;26.21;39.40
61573;BME280;47465;43.094;12.434;2023-05-28T11:08:44;98351.25;;;25.83;40.53
61573;BME280;47465;43.094;12.434;2023-05-28T11:11:12;98353.78;;;26.05;42.32
61573;BME280;47465;43.094;12.434;2023-05-28T11:13:38;98352.75;;;26.06;40.53
61573;BME280;47465;43.094;12.434;2023-05-28T11:16:08;98365.69;;;26.03;41.26
61573;BME280;47465;43.094;12.434;2023-05-28T11:18:34;98340.75;;;25.32;42.17
61573;BME280;47465;43.094;12.434;2023-05-28T11:21:07;98352.19;;;25.45;42.79
61573;BME280;47465;43.094;12.434;2023-05-28T11:23:34;98334.59;;;25.96;41.49
61573;BME280;47465;43.094;12.434;2023-05-28T11:26:02;98361.75;;;26.16;42.52
61573;BME280;47465;43.094;12.434;2023-05-28T11:28:29;98367.78;;;25.72;43.49
61573;BME280;47465;43.094;12.434;2023-05-28T11:30:56;98352.13;;;25.94;43.33
61573;BME280;47465;43.094;12.434;2023-05-28T11:33:26;98338.06;;;25.79;41.54
61573;BME280;47465;43.094;12.434;2023-05-28T11:35:56;98348.19;;;25.49;42.87
61573;BME280;47465;43.094;12.434;2023-05-28T11:38:24;98359.22;;;25.38;43.86
61573;BME280;47465;43.094;12.434;2023-05-28T11:40:49;98346.31;;;25.59;43.18
61573;BME280;47465;43.094;12.434;2023-05-28T11:43:15;98319.47;;;25.74;42.57
61573;BME280;47465;43.094;12.434;2023-05-28T11:45:41;98350.50;;;26.01;42.87
61573;BME280;47465;43.094;12.434;2023-05-28T11:48:11;98316.53;;;25.95;42.89
61573;BME280;47465;43.094;12.434;2023-05-28T11:50:37;98341.81;;;26.43;41.84
61573;BME280;47465;43.094;12.434;2023-05-28T11:53:03;98336.13;;;26.54;40.41
61573;BME280;47465;43.094;12.434;2023-05-28T11:55:31;98344.44;;;26.35;40.56
61573;BME280;47465;43.094;12.434;2023-05-28T11:57:57;98331.69;;;26.35;40.36
61573;BME280;47465;43.094;12.434;2023-05-28T12:00:30;98355.88;;;26.11;41.98
61573;BME280;47465;43.094;12.434;2023-05-28T12:02:59;98321.72;;;25.89;41.32
61573;BME280;47465;43.094;12.434;2023-05-28T12:05:25;98345.09;;;26.47;40.03
61573;BME280;47465;43.094;12.434;2023-05-28T12:07:53;98340.56;;;26.65;40.11
61573;BME280;47465;43.094;12.434;2023-05-28T12:10:20;98336.53;;;26.87;41.14
61573;BME280;47465;43.094;12.434;2023-05-28T12:12:49;98341.88;;;25.39;42.54
61573;BME280;47465;43.094;12.434;2023-05-28T12:15:16;98346.22;;;25.98;39.81
61573;BME280;47465;43.094;12.434;2023-05-28T12:17:43;98341.19;;;26.31;40.06
61573;BME280;47465;43.094;12.434;2023-05-28T12:20:30;98345.66;;;26.50;39.91
61573;BME280;47465;43.094;12.434;2023-05-28T12:23:03;98309.22;;;25.39;38.51
61573;BME280;47465;43.094;12.434;2023-05-28T12:25:46;98305.78;;;25.94;38.57
61573;BME280;47465;43.094;12.434;2023-05-28T12:28:16;98305.16;;;25.62;39.92
61573;BME280;47465;43.094;12.434;2023-05-28T12:30:43;98312.91;;;26.05;37.26
61573;BME280;47465;43.094;12.434;2023-05-28T12:33:10;98317.50;;;26.32;37.42
61573;BME280;47465;43.094;12.434;2023-05-28T12:35:36;98314.53;;;26.43;36.87
61573;BME280;47465;43.094;12.434;2023-05-28T12:38:02;98294.16;;;26.47;37.06
61573;BME280;47465;43.094;12.434;2023-05-28T12:40:29;98321.03;;;26.42;37.82
61573;BME280;47465;43.094;12.434;2023-05-28T12:42:56;98288.13;;;25.98;38.27
61573;BME280;47465;43.094;12.434;2023-05-28T12:45:23;98293.75;;;26.42;37.58
61573;BME280;47465;43.094;12.434;2023-05-28T12:47:49;98302.22;;;25.83;38.09
61573;BME280;47465;43.094;12.434;2023-05-28T12:50:16;98287.00;;;25.91;38.07
61573;BME280;47465;43.094;12.434;2023-05-28T12:52:42;98277.50;;;26.05;38.30